메인 페이지
METAR-TAF:

METAR-TAF

공항 :

야쿠츠크, 러시아

야쿠츠크 공항

위도: 62-01N, 경도: 129-43E, 고도: 103m

현재 날씨관측

예보는 48분 전, 00:00시(UTC)에 발표되었습니다.
북북서2kt
온도 -34°C
습도 74%
기압 1019 hPa
시정 10km 이상
약한눈

METAR: UEEE 180000Z 34001MPS 9999 -SN NSC M34/M37 Q1019 R23L/490150 NOSIG RMK QFE755

시각: 09:48 (00:48 UTC)

예보

예보는 1 시간 48분 전, 23:00시(UTC)에 발표되었습니다.
예보 대상 시간: 18일 00시부터 19일 06시까지 (UTC)
6kt
시정 10km 이상
고도 7000ft 상공 흐림
약한눈
일시적
18일 00시부터 18일 03시까지 (UTC)
시정: 2100m
약한눈, 박무

TAF: UEEE 172300Z 1800/1906 35003MPS 9999 -SN OVC070 TEMPO 1800/1803 2100 -SN BR

4,000개 이상의 공항 관측 자료 및 예보 (METAR 및 TAF 보고).

지도상에서 검색 가능한 기상관측소가 노란 점과 빨간 점으로 표시되어 있습니다.

기상관측소 명을 보려면 표시 위로 마우스를 이동하세요.

날씨 관측과 예보를 보려면 클릭하세요.

지도 변경 : 확대하려면 엑스 표시가 있는 녹색 버튼, 축소하려면 빼기 표시가 있는 녹색 버튼, 다음 페이지의 지도를 보려면 녹색 화살표를 클릭하세요.


METAR-TAF: